Time;durP1;ratioP1;P1;durP2;ratioP2;P2;SDS_P1;SDS_P2;PMS_P1;PMS_P2;Temp;Humidity;BMP_temperature;BMP_pressure;BME280_temperature;BME280_humidity;BME280_pressure;Samples;Min_cycle;Max_cycle;Signal;HPM_P1;HPM_P2
2022/04/23 00:00:51;;;;;;;37.08;22.67;;;;;;;4.98;77.98;99783.94;5076367;28;20015;-81
2022/04/23 00:03:17;;;;;;;34.75;22.63;;;;;;;4.93;78.11;99778.09;5059724;28;20072;-80
2022/04/23 00:05:43;;;;;;;34.70;22.58;;;;;;;4.91;78.32;99777.75;5094430;28;20103;-81
2022/04/23 00:08:10;;;;;;;35.83;22.05;;;;;;;4.89;77.82;99783.84;5059640;28;20185;-81
2022/04/23 00:10:38;;;;;;;37.85;22.63;;;;;;;4.85;77.57;99780.34;5043814;28;20172;-81
2022/04/23 00:13:04;;;;;;;38.58;22.52;;;;;;;4.83;78.15;99785.69;5059965;28;20494;-80
2022/04/23 00:15:37;;;;;;;32.25;21.75;;;;;;;4.75;77.99;99778.66;5093244;28;20044;-81
2022/04/23 00:18:12;;;;;;;34.55;21.42;;;;;;;4.79;77.99;99787.78;5094029;28;20028;-80
2022/04/23 00:20:46;;;;;;;35.63;21.45;;;;;;;4.76;77.87;99785.88;5059072;28;20384;-80
2022/04/23 00:23:13;;;;;;;41.97;21.50;;;;;;;4.73;78.30;99783.97;5093305;28;20020;-81
2022/04/23 00:25:40;;;;;;;32.00;20.60;;;;;;;4.70;78.55;99776.41;5059237;28;20070;-79
2022/04/23 00:28:09;;;;;;;38.20;22.10;;;;;;;4.66;78.29;99776.53;5076263;28;20123;-79
2022/04/23 00:30:34;;;;;;;34.10;20.58;;;;;;;4.48;78.23;99752.97;5059598;28;20047;-79
2022/04/23 00:33:02;;;;;;;33.83;20.48;;;;;;;4.62;78.09;99775.06;5075982;28;20408;-81
2022/04/23 00:35:28;;;;;;;29.40;19.88;;;;;;;4.57;78.26;99770.78;5093601;28;20078;-80
2022/04/23 00:37:56;;;;;;;34.92;21.67;;;;;;;4.57;78.71;99779.25;5093499;28;20039;-82
2022/04/23 00:40:24;;;;;;;34.42;20.83;;;;;;;4.54;78.67;99774.50;5058936;28;20028;-81
2022/04/23 00:42:54;;;;;;;31.05;19.70;;;;;;;4.50;78.94;99773.03;5076140;28;20044;-80
2022/04/23 00:45:24;;;;;;;32.83;21.33;;;;;;;4.48;79.12;99781.16;5058883;28;20024;-80
2022/04/23 00:47:51;;;;;;;33.72;20.58;;;;;;;4.45;78.49;99773.59;5058881;28;20571;-81
2022/04/23 00:50:21;;;;;;;30.15;20.25;;;;;;;4.44;79.38;99772.78;5075491;28;20035;-79
2022/04/23 00:53:01;;;;;;;30.98;20.63;;;;;;;4.42;79.51;99777.31;5058962;28;20115;-81
2022/04/23 00:55:42;;;;;;;33.13;19.58;;;;;;;4.39;79.38;99781.06;5060235;28;20070;-80
2022/04/23 00:58:07;;;;;;;31.20;20.02;;;;;;;4.33;79.32;99775.97;5093709;28;20035;-80
2022/04/23 01:00:34;;;;;;;29.48;19.52;;;;;;;4.33;79.44;99781.59;5075098;28;20069;-79
2022/04/23 01:03:01;;;;;;;28.17;19.58;;;;;;;4.31;79.04;99783.28;5075422;28;20027;-79
2022/04/23 01:05:27;;;;;;;32.40;20.85;;;;;;;4.29;79.52;99785.78;5058502;28;20022;-79
2022/04/23 01:07:55;;;;;;;26.92;19.00;;;;;;;4.23;79.13;99770.66;5075238;28;20031;-79
2022/04/23 01:10:21;;;;;;;29.38;19.08;;;;;;;4.19;79.43;99769.97;5058366;28;20039;-79
2022/04/23 01:12:48;;;;;;;30.05;20.38;;;;;;;4.20;79.54;99772.31;5093356;28;20028;-79
2022/04/23 01:15:14;;;;;;;27.42;20.00;;;;;;;4.16;79.74;99771.66;5093037;28;20044;-79
2022/04/23 01:17:41;;;;;;;29.33;20.45;;;;;;;4.13;79.40;99769.75;5075215;28;20189;-80
2022/04/23 01:20:13;;;;;;;29.38;19.92;;;;;;;4.12;79.59;99764.53;5075014;28;20107;-78
2022/04/23 01:22:41;;;;;;;31.23;19.23;;;;;;;4.07;79.56;99757.44;5058327;28;20097;-80
2022/04/23 01:25:10;;;;;;;30.92;20.00;;;;;;;4.07;79.95;99777.16;5075308;28;20030;-80
2022/04/23 01:27:38;;;;;;;28.33;19.48;;;;;;;4.05;80.01;99771.16;5075468;28;20024;-80
2022/04/23 01:30:07;;;;;;;28.45;19.75;;;;;;;4.05;80.10;99776.00;5091816;28;20042;-78
2022/04/23 01:32:34;;;;;;;32.33;20.23;;;;;;;4.04;80.66;99771.63;5058329;28;20491;-79
2022/04/23 01:34:59;;;;;;;27.77;20.15;;;;;;;4.03;80.43;99775.69;5077038;28;20020;-79
2022/04/23 01:37:26;;;;;;;29.90;18.95;;;;;;;3.97;80.25;99766.19;5045589;28;20035;-78
2022/04/23 01:39:51;;;;;;;31.73;21.23;;;;;;;3.98;80.06;99764.97;5061911;28;20028;-78
2022/04/23 01:42:20;;;;;;;31.33;19.95;;;;;;;3.96;80.04;99770.25;5078186;28;20480;-79
2022/04/23 01:44:47;;;;;;;34.55;21.02;;;;;;;3.91;79.97;99763.13;5078741;28;20081;-79
2022/04/23 01:47:12;;;;;;;37.22;21.17;;;;;;;3.91;80.26;99763.13;5096545;28;20468;-80
2022/04/23 01:49:38;;;;;;;31.70;20.35;;;;;;;3.85;80.61;99759.28;5061605;28;20031;-80
2022/04/23 01:52:07;;;;;;;33.03;21.42;;;;;;;3.68;80.25;99738.06;5077545;28;20076;-80
2022/04/23 01:54:35;;;;;;;30.70;20.23;;;;;;;3.85;80.43;99762.91;5096137;28;20016;-79
2022/04/23 01:57:02;;;;;;;29.92;19.33;;;;;;;3.84;80.65;99763.38;5060589;28;20027;-79
2022/04/23 01:59:30;;;;;;;29.40;20.00;;;;;;;3.69;80.17;99746.09;5077964;28;20039;-79
2022/04/23 02:01:58;;;;;;;32.40;19.85;;;;;;;3.79;80.44;99758.28;5096121;28;20376;-80
2022/04/23 02:04:24;;;;;;;28.75;19.65;;;;;;;3.76;80.60;99762.75;5078702;28;20031;-80
2022/04/23 02:06:50;;;;;;;32.95;20.67;;;;;;;3.75;80.74;99757.59;5077661;28;20039;-80
2022/04/23 02:09:17;;;;;;;31.58;19.75;;;;;;;3.66;80.52;99746.16;5096288;28;20023;-80
2022/04/23 02:11:43;;;;;;;29.75;19.88;;;;;;;3.69;81.04;99750.94;5096015;28;20043;-79
2022/04/23 02:14:09;;;;;;;29.30;20.02;;;;;;;3.69;80.87;99760.16;5095540;28;20047;-79
2022/04/23 02:16:34;;;;;;;27.50;17.98;;;;;;;3.69;80.49;99756.56;5060939;28;20487;-80
2022/04/23 02:19:03;;;;;;;29.63;20.13;;;;;;;3.66;81.19;99746.97;5078330;28;20049;-81
2022/04/23 02:21:31;;;;;;;28.00;18.60;;;;;;;3.68;81.42;99755.78;5078448;28;20469;-81
2022/04/23 02:23:57;;;;;;;33.55;20.52;;;;;;;3.69;81.28;99756.56;5061454;28;20016;-81
2022/04/23 02:26:23;;;;;;;29.55;18.70;;;;;;;3.66;80.78;99755.41;5060876;28;20053;-80
2022/04/23 02:28:50;;;;;;;31.50;19.30;;;;;;;3.67;81.30;99756.19;5078196;28;20024;-80
2022/04/23 02:31:17;;;;;;;32.28;19.20;;;;;;;3.64;80.95;99748.66;5044993;28;20078;-80
2022/04/23 02:33:44;;;;;;;29.08;20.77;;;;;;;3.62;81.17;99754.72;5077879;28;20491;-79
2022/04/23 02:36:10;;;;;;;31.10;19.85;;;;;;;3.61;81.00;99763.59;5078054;28;20472;-78
2022/04/23 02:38:41;;;;;;;31.58;19.95;;;;;;;3.56;81.27;99755.72;5078405;28;20032;-79
2022/04/23 02:41:09;;;;;;;31.58;20.00;;;;;;;3.56;81.32;99759.31;5061429;28;20424;-78
2022/04/23 02:43:35;;;;;;;33.92;20.67;;;;;;;3.53;81.46;99750.97;5060573;28;20016;-79
2022/04/23 02:46:12;;;;;;;35.08;21.02;;;;;;;3.53;81.74;99757.41;5076419;28;20030;-78
2022/04/23 02:48:37;;;;;;;33.90;20.80;;;;;;;3.53;81.86;99756.59;5095545;28;20031;-79
2022/04/23 02:51:04;;;;;;;36.22;21.35;;;;;;;3.52;81.87;99758.63;5060598;28;20028;-79
2022/04/23 02:53:30;;;;;;;33.67;22.05;;;;;;;3.50;81.67;99757.50;5060302;28;20149;-80
2022/04/23 02:55:56;;;;;;;34.28;22.63;;;;;;;3.46;82.03;99755.56;5095108;28;20089;-78
2022/04/23 02:58:26;;;;;;;37.53;20.92;;;;;;;3.48;81.88;99761.56;5095547;28;20028;-79
2022/04/23 03:00:53;;;;;;;33.83;22.00;;;;;;;3.52;81.81;99766.28;5077184;28;20047;-79
2022/04/23 03:03:19;;;;;;;34.05;20.17;;;;;;;3.46;81.79;99761.19;5077478;28;20089;-79
2022/04/23 03:05:45;;;;;;;37.08;23.35;;;;;;;3.48;81.94;99772.81;5096011;28;20026;-79
2022/04/23 03:08:12;;;;;;;39.22;23.20;;;;;;;3.49;81.85;99779.22;5095519;28;20024;-78
2022/04/23 03:10:39;;;;;;;38.60;22.90;;;;;;;3.47;81.96;99770.44;5061084;28;20043;-79
2022/04/23 03:13:07;;;;;;;37.45;23.52;;;;;;;3.46;82.13;99771.66;5095099;28;20020;-78
2022/04/23 03:15:34;;;;;;;40.60;24.63;;;;;;;3.43;82.00;99769.75;5040367;28;20139;-79
2022/04/23 03:18:18;;;;;;;40.58;23.83;;;;;;;3.41;82.15;99777.81;5073376;28;20024;-79
2022/04/23 03:20:45;;;;;;;47.45;27.15;;;;;;;3.35;81.83;99766.34;5073304;28;20028;-80
2022/04/23 03:23:12;;;;;;;57.95;30.85;;;;;;;3.39;82.24;99780.31;5073237;28;20025;-79
2022/04/23 03:25:38;;;;;;;56.10;30.15;;;;;;;3.32;82.21;99767.22;5073346;28;20036;-79
2022/04/23 03:28:03;;;;;;;40.13;23.98;;;;;;;3.31;82.03;99776.09;5056805;28;20385;-80
2022/04/23 03:30:31;;;;;;;33.05;21.40;;;;;;;3.32;81.86;99781.28;5056373;28;20381;-79
2022/04/23 03:32:59;;;;;;;31.52;20.73;;;;;;;3.32;82.15;99780.50;5074264;28;20031;-79
2022/04/23 03:35:26;;;;;;;34.67;21.17;;;;;;;3.32;82.12;99792.53;5073015;28;20048;-79
2022/04/23 03:37:51;;;;;;;34.47;21.70;;;;;;;3.28;82.11;99791.06;5039795;28;20029;-79
2022/04/23 03:40:18;;;;;;;30.58;21.50;;;;;;;3.28;82.03;99799.50;5073211;28;20020;-79
2022/04/23 03:42:45;;;;;;;35.03;21.00;;;;;;;3.24;82.15;99791.16;5072972;28;20024;-79
2022/04/23 03:45:10;;;;;;;35.35;22.85;;;;;;;3.25;82.00;99794.75;5057228;28;20024;-79
2022/04/23 03:47:44;;;;;;;33.90;21.73;;;;;;;3.26;81.95;99791.50;5075216;28;20020;-79
2022/04/23 03:50:10;;;;;;;33.10;21.52;;;;;;;3.23;82.00;99797.22;5039838;28;20485;-79
2022/04/23 03:52:36;;;;;;;35.13;22.08;;;;;;;3.22;81.61;99799.22;5073009;28;20427;-79
2022/04/23 03:55:04;;;;;;;36.03;23.08;;;;;;;3.26;81.93;99802.75;5072965;28;20047;-79
2022/04/23 03:57:41;;;;;;;37.38;22.75;;;;;;;3.28;82.05;99797.47;5055987;28;20094;-79
2022/04/23 04:00:09;;;;;;;34.97;22.05;;;;;;;3.23;81.72;99785.97;5040525;28;20040;-79
2022/04/23 04:02:35;;;;;;;40.22;22.52;;;;;;;3.29;81.78;99785.00;5055796;28;20036;-79
2022/04/23 04:05:00;;;;;;;35.92;21.83;;;;;;;3.33;81.81;99794.13;5055679;28;20389;-79
2022/04/23 04:07:27;;;;;;;36.85;22.77;;;;;;;3.35;81.80;99788.84;5073373;28;20028;-79
2022/04/23 04:09:54;;;;;;;34.67;22.13;;;;;;;3.37;81.96;99791.22;5073159;28;20040;-79
2022/04/23 04:12:20;;;;;;;33.92;22.30;;;;;;;3.45;81.72;99789.81;5074484;28;20062;-79
2022/04/23 04:14:47;;;;;;;38.00;22.95;;;;;;;3.51;81.66;99792.84;5072818;28;20047;-79
2022/04/23 04:17:15;;;;;;;35.95;22.80;;;;;;;3.58;81.40;99795.47;5056207;28;20028;-80
2022/04/23 04:19:41;;;;;;;36.15;21.83;;;;;;;3.63;80.95;99795.72;5073182;28;20077;-79
2022/04/23 04:22:08;;;;;;;39.25;24.40;;;;;;;3.64;80.83;99788.06;5073047;28;20021;-79
2022/04/23 04:24:35;;;;;;;41.75;23.73;;;;;;;3.73;80.96;99803.09;5073412;28;20036;-80
2022/04/23 04:27:01;;;;;;;40.38;23.63;;;;;;;3.77;81.01;99798.16;5074722;28;20469;-80
2022/04/23 04:29:27;;;;;;;37.97;24.58;;;;;;;3.85;80.86;99796.69;5055832;28;20124;-80
2022/04/23 04:31:54;;;;;;;45.10;26.35;;;;;;;3.94;81.05;99800.91;5072048;28;20021;-80
2022/04/23 04:34:23;;;;;;;42.92;24.90;;;;;;;4.03;80.94;99789.78;5073601;28;20044;-81
2022/04/23 04:36:51;;;;;;;37.78;23.63;;;;;;;4.12;80.86;99795.53;5073913;28;20017;-82
2022/04/23 04:39:18;;;;;;;40.83;24.17;;;;;;;4.22;80.59;99798.03;5056706;28;20040;-81
2022/04/23 04:41:46;;;;;;;35.97;22.75;;;;;;;4.32;79.84;99796.13;5056461;28;20037;-80
2022/04/23 04:44:14;;;;;;;36.58;25.05;;;;;;;4.46;79.65;99804.16;5074072;28;20025;-80
2022/04/23 04:46:40;;;;;;;42.65;22.00;;;;;;;4.56;79.59;99802.25;5040417;28;20385;-81
2022/04/23 04:49:06;;;;;;;31.45;20.38;;;;;;;4.56;78.84;99785.31;5073840;28;20481;-81
2022/04/23 04:51:33;;;;;;;40.47;24.02;;;;;;;4.74;78.42;99806.06;5075211;28;20381;-81
2022/04/23 04:54:00;;;;;;;35.28;20.40;;;;;;;4.86;78.83;99807.31;5074808;28;20024;-81
2022/04/23 04:56:27;;;;;;;36.10;21.75;;;;;;;4.97;77.92;99807.78;5073473;28;20559;-81
2022/04/23 04:58:52;;;;;;;30.17;19.52;;;;;;;5.13;77.82;99820.97;5073292;28;20122;-80
2022/04/23 05:01:17;;;;;;;33.63;20.48;;;;;;;5.25;77.04;99816.53;5073529;28;20449;-80
2022/04/23 05:03:43;;;;;;;38.25;22.10;;;;;;;5.36;77.47;99819.78;5075026;28;20020;-80
2022/04/23 05:06:10;;;;;;;34.67;22.65;;;;;;;5.48;77.09;99824.59;5073520;28;20024;-80
2022/04/23 05:08:44;;;;;;;30.35;21.25;;;;;;;5.61;76.66;99825.38;5040104;28;20069;-81
2022/04/23 05:11:10;;;;;;;34.70;21.63;;;;;;;5.68;76.42;99816.63;5076805;28;20035;-79
2022/04/23 05:13:38;;;;;;;35.08;22.13;;;;;;;5.82;75.79;99821.00;5075438;28;20024;-81
2022/04/23 05:16:06;;;;;;;33.60;21.02;;;;;;;5.99;75.70;99819.56;5057652;28;20046;-79
2022/04/23 05:18:32;;;;;;;33.85;20.80;;;;;;;6.08;75.31;99814.00;5058896;28;20024;-79
2022/04/23 05:20:58;;;;;;;31.33;20.90;;;;;;;6.26;75.04;99821.81;5042417;28;20024;-80
2022/04/23 05:23:24;;;;;;;32.08;20.80;;;;;;;6.35;73.95;99811.34;5059205;28;20027;-81
2022/04/23 05:25:49;;;;;;;31.67;20.10;;;;;;;6.49;73.61;99818.50;5042553;28;20036;-80
2022/04/23 05:28:14;;;;;;;33.17;20.10;;;;;;;6.66;73.49;99819.06;5059197;28;20449;-81
2022/04/23 05:30:41;;;;;;;30.75;19.48;;;;;;;6.72;72.74;99811.53;5076117;28;20149;-80
2022/04/23 05:33:06;;;;;;;23.33;17.35;;;;;;;6.86;72.87;99817.41;5059377;28;20078;-79
2022/04/23 05:35:32;;;;;;;28.27;18.13;;;;;;;6.96;72.24;99809.72;5041596;28;20032;-80
2022/04/23 05:37:58;;;;;;;28.00;17.15;;;;;;;6.97;71.87;99790.69;5041769;28;20032;-83
2022/04/23 05:40:23;;;;;;;23.92;17.15;;;;;;;7.19;71.53;99809.19;5058575;28;20027;-82
2022/04/23 05:42:48;;;;;;;29.98;18.10;;;;;;;7.24;71.05;99804.94;5058769;28;20016;-82
2022/04/23 05:45:15;;;;;;;30.15;16.45;;;;;;;7.44;71.00;99813.81;5040344;28;20037;-83
2022/04/23 05:47:41;;;;;;;30.08;17.63;;;;;;;7.57;70.09;99805.16;5041475;28;20070;-82
2022/04/23 05:50:09;;;;;;;28.67;16.75;;;;;;;7.70;69.75;99815.06;5041523;28;20021;-82
2022/04/23 05:52:37;;;;;;;32.15;17.33;;;;;;;7.77;69.17;99808.31;5025171;28;20035;-82
2022/04/23 05:55:04;;;;;;;24.98;15.95;;;;;;;7.95;68.94;99810.34;5075027;28;20123;-79
2022/04/23 05:57:34;;;;;;;27.17;18.27;;;;;;;8.00;68.25;99804.84;5049228;28;20442;-81
2022/04/23 06:00:03;;;;;;;29.77;17.98;;;;;;;8.14;68.64;99801.34;5078145;28;20020;-82
2022/04/23 06:02:28;;;;;;;28.50;18.20;;;;;;;8.28;68.44;99802.78;5059569;28;20032;-83
2022/04/23 06:04:54;;;;;;;26.88;17.67;;;;;;;8.43;68.21;99811.44;5079431;28;20016;-77
2022/04/23 06:07:20;;;;;;;35.25;19.17;;;;;;;8.55;67.61;99807.59;5060239;28;20028;-82
2022/04/23 06:09:46;;;;;;;24.20;17.65;;;;;;;8.67;67.13;99806.63;5060078;28;20020;-84
2022/04/23 06:12:12;;;;;;;28.08;18.15;;;;;;;8.84;66.31;99818.38;5041673;28;20392;-80
2022/04/23 06:14:39;;;;;;;23.50;16.92;;;;;;;9.03;66.57;99820.66;5064876;28;20082;-80
2022/04/23 06:17:10;;;;;;;27.80;18.50;;;;;;;9.18;65.70;99811.44;5078061;28;20024;-78
2022/04/23 06:19:37;;;;;;;32.17;19.02;;;;;;;9.34;65.85;99811.81;5077940;28;20040;-80
2022/04/23 06:22:04;;;;;;;28.10;18.83;;;;;;;9.38;65.97;99809.59;5059850;28;20058;-79
2022/04/23 06:24:31;;;;;;;25.45;18.08;;;;;;;9.55;65.69;99818.50;5077575;28;20024;-80
2022/04/23 06:26:56;;;;;;;27.90;18.08;;;;;;;9.67;64.73;99814.59;5078087;28;20090;-79
2022/04/23 06:29:23;;;;;;;21.88;17.42;;;;;;;9.85;63.60;99813.69;5078255;28;20457;-79
2022/04/23 06:31:49;;;;;;;24.92;17.92;;;;;;;10.00;62.50;99814.50;5100615;28;20024;-81
2022/04/23 06:34:14;;;;;;;29.23;17.85;;;;;;;10.21;61.87;99815.47;5082722;28;20483;-80
2022/04/23 06:36:42;;;;;;;20.17;14.63;;;;;;;11.04;62.36;99811.22;5076057;28;20483;-79
2022/04/23 06:39:08;;;;;;;24.73;15.10;;;;;;;12.92;60.15;99791.91;5100236;28;20472;-81
2022/04/23 06:41:35;;;;;;;23.17;14.32;;;;;;;14.95;54.00;99795.81;5079787;28;20465;-81
2022/04/23 06:44:01;;;;;;;20.88;14.98;;;;;;;17.09;49.45;99781.53;5097068;28;20369;-81
2022/04/23 06:46:27;;;;;;;19.75;14.10;;;;;;;18.96;41.88;99785.41;5079082;28;20468;-80
2022/04/23 06:48:53;;;;;;;19.60;14.88;;;;;;;20.38;39.42;99782.94;5063092;28;20048;-82
2022/04/23 06:51:18;;;;;;;20.00;14.23;;;;;;;21.57;37.95;99772.31;5080540;28;20035;-79
2022/04/23 06:53:45;;;;;;;16.27;14.23;;;;;;;22.62;33.35;99785.84;5064323;28;20066;-82
2022/04/23 06:56:11;;;;;;;15.38;13.45;;;;;;;23.82;32.04;99786.53;5097749;28;20024;-81
2022/04/23 06:58:37;;;;;;;14.23;11.35;;;;;;;24.82;31.00;99785.56;5078086;28;20107;-82
2022/04/23 07:01:04;;;;;;;12.75;11.10;;;;;;;25.51;28.30;99785.06;5096447;28;20108;-81
2022/04/23 07:03:32;;;;;;;13.80;11.32;;;;;;;25.86;25.59;99777.94;5078063;28;20042;-81
2022/04/23 07:05:58;;;;;;;13.30;11.93;;;;;;;26.14;25.59;99782.50;5078296;28;20551;-78
2022/04/23 07:08:24;;;;;;;13.05;10.93;;;;;;;26.64;25.59;99786.00;5078663;28;20471;-80
2022/04/23 07:10:52;;;;;;;11.05;9.98;;;;;;;27.09;25.22;99784.56;5096942;28;20088;-80
2022/04/23 07:13:18;;;;;;;14.90;11.50;;;;;;;27.70;21.78;99784.38;5079917;28;20032;-80
2022/04/23 07:15:45;;;;;;;14.20;10.07;;;;;;;27.43;21.05;99796.09;5078713;28;20179;-81
2022/04/23 07:18:12;;;;;;;10.40;8.98;;;;;;;27.53;23.44;99786.63;5097427;28;20087;-79
2022/04/23 07:20:39;;;;;;;11.43;10.35;;;;;;;27.73;23.79;99782.34;5095166;28;20103;-81
2022/04/23 07:25:51;;;;;;;13.35;9.73;;;;;;;27.87;23.06;99786.41;5094700;28;20546;-74
2022/04/23 07:28:22;;;;;;;13.35;9.48;;;;;;;28.84;22.34;99779.16;5076765;28;20024;-75
2022/04/23 07:30:50;;;;;;;13.07;10.33;;;;;;;29.57;21.32;99779.34;5094607;28;20031;-76
2022/04/23 07:38:46;;;;;;;11.68;10.50;;;;;;;29.96;20.50;99776.19;5094482;28;20488;-76
2022/04/23 07:41:13;;;;;;;14.88;10.82;;;;;;;30.64;19.12;99770.53;5094289;28;20028;-74
2022/04/23 07:43:39;;;;;;;12.30;10.55;;;;;;;31.11;20.54;99766.31;5094315;28;20020;-75
2022/04/23 07:46:04;;;;;;;13.57;9.50;;;;;;;31.71;19.09;99759.81;5094302;28;20106;-74
2022/04/23 07:48:30;;;;;;;13.83;10.67;;;;;;;31.52;18.36;99763.78;5093947;28;20193;-75
2022/04/23 07:50:56;;;;;;;10.55;8.60;;;;;;;31.71;18.27;99756.88;5076330;28;20285;-75
2022/04/23 07:53:24;;;;;;;11.07;9.45;;;;;;;31.87;17.86;99745.31;5107614;28;20027;-75
2022/04/23 07:55:50;;;;;;;13.10;9.23;;;;;;;32.10;17.66;99746.03;5075750;28;20375;-78
2022/04/23 07:58:15;;;;;;;13.60;9.43;;;;;;;31.83;17.93;99748.75;5093829;28;20032;-76
2022/04/23 08:00:45;;;;;;;10.67;7.90;;;;;;;31.61;17.88;99747.41;5075698;28;20070;-76
2022/04/23 08:03:10;;;;;;;11.43;6.70;;;;;;;30.81;15.58;99747.44;5076650;28;20794;-77
2022/04/23 08:05:37;;;;;;;9.27;6.75;;;;;;;30.11;17.55;99754.44;5058976;28;20044;-76
2022/04/23 08:08:03;;;;;;;8.18;7.20;;;;;;;30.33;18.67;99742.03;5059213;28;20126;-76
2022/04/23 08:10:30;;;;;;;8.40;7.15;;;;;;;30.12;18.48;99753.81;5075451;28;20024;-76
2022/04/23 08:12:56;;;;;;;10.57;6.93;;;;;;;30.00;18.38;99747.84;5058444;28;20051;-76
2022/04/23 08:15:26;;;;;;;7.47;6.78;;;;;;;30.13;17.04;99754.56;5058031;28;20051;-75
2022/04/23 08:17:56;;;;;;;7.88;7.07;;;;;;;30.19;18.26;99743.25;5093548;28;20032;-76
2022/04/23 08:20:21;;;;;;;16.20;7.50;;;;;;;30.77;18.90;99731.69;5084577;28;20424;-75
2022/04/23 08:22:48;;;;;;;8.75;6.78;;;;;;;30.78;18.32;99731.06;5088542;28;20493;-76
2022/04/23 08:25:14;;;;;;;7.38;6.55;;;;;;;30.77;18.50;99734.63;5072878;28;20377;-77
2022/04/23 08:30:51;;;;;;;6.75;6.15;;;;;;;31.09;17.04;99724.97;5090286;28;20062;-75
2022/04/23 08:33:16;;;;;;;7.20;5.60;;;;;;;30.53;17.44;99725.00;5093116;28;20044;-75
2022/04/23 08:35:41;;;;;;;8.25;6.82;;;;;;;30.29;17.40;99723.34;5075109;28;20063;-77
2022/04/23 08:38:08;;;;;;;8.77;7.45;;;;;;;30.01;17.97;99719.25;5093355;28;20133;-77
2022/04/23 08:40:39;;;;;;;8.40;6.65;;;;;;;29.60;17.47;99716.44;5076069;28;20039;-76
2022/04/23 08:43:06;;;;;;;11.00;7.15;;;;;;;29.06;18.69;99707.44;5093885;28;20040;-76
2022/04/23 08:45:32;;;;;;;6.05;5.40;;;;;;;29.18;17.77;99720.06;5078154;28;20477;-76
2022/04/23 08:48:00;;;;;;;8.23;6.30;;;;;;;28.57;18.17;99703.13;5062690;28;20047;-77
2022/04/23 08:50:26;;;;;;;6.63;6.03;;;;;;;28.43;17.98;99718.88;5063080;28;20046;-78
2022/04/23 08:53:08;;;;;;;8.88;6.32;;;;;;;28.16;18.65;99711.06;5074929;28;20146;-77
2022/04/23 08:55:34;;;;;;;6.72;5.55;;;;;;;28.17;20.28;99709.66;5062558;28;20030;-77
2022/04/23 08:58:00;;;;;;;7.85;5.63;;;;;;;28.13;19.27;99705.66;5079032;28;20426;-77
2022/04/23 09:00:27;;;;;;;5.85;5.35;;;;;;;28.14;19.76;99707.19;5079108;28;20024;-76
2022/04/23 09:02:52;;;;;;;5.75;5.25;;;;;;;27.89;18.71;99704.56;5078877;28;20380;-78
2022/04/23 09:05:27;;;;;;;6.63;5.93;;;;;;;27.59;19.55;99699.28;5097365;28;20043;-77
2022/04/23 09:07:53;;;;;;;6.72;6.03;;;;;;;27.47;19.74;99696.97;5080177;28;20069;-79
2022/04/23 09:10:20;;;;;;;8.88;6.40;;;;;;;27.58;19.93;99703.63;5079814;28;20031;-78
2022/04/23 09:12:56;;;;;;;8.70;6.32;;;;;;;27.24;19.32;99701.66;5097348;28;20099;-78
2022/04/23 09:23:44;;;;;;;13.32;7.00;;;;;;;26.31;21.15;99694.91;5097210;28;20031;-76
2022/04/23 09:26:18;;;;;;;8.30;6.55;;;;;;;26.21;21.12;99694.03;5097406;28;20028;-75
2022/04/23 09:28:50;;;;;;;7.63;6.00;;;;;;;25.94;21.59;99687.38;5078963;28;20465;-77
2022/04/23 09:31:17;;;;;;;5.95;5.25;;;;;;;25.69;21.63;99690.41;5079022;28;20062;-76
2022/04/23 09:33:51;;;;;;;7.78;6.03;;;;;;;24.99;21.74;99688.72;5078530;28;20404;-76
2022/04/23 09:36:17;;;;;;;16.08;7.13;;;;;;;24.69;22.90;99694.75;5096988;28;20058;-79
2022/04/23 09:38:42;;;;;;;10.98;6.50;;;;;;;24.59;22.22;99694.63;5096969;28;20016;-78
2022/04/23 09:41:22;;;;;;;7.85;5.80;;;;;;;24.63;21.95;99682.56;5097067;28;20031;-76
2022/04/23 09:44:12;;;;;;;6.95;6.22;;;;;;;24.60;23.47;99678.69;5096983;28;20024;-77
2022/04/23 09:46:48;;;;;;;6.97;6.38;;;;;;;24.72;23.82;99684.81;5096725;28;20031;-77
2022/04/23 09:49:25;;;;;;;8.68;6.68;;;;;;;24.63;22.91;99680.41;5078482;28;20030;-77
2022/04/23 09:52:05;;;;;;;7.60;6.80;;;;;;;24.06;22.59;99686.16;5079161;28;20054;-77
2022/04/23 09:54:31;;;;;;;10.48;7.43;;;;;;;23.44;23.92;99684.78;5078723;28;20028;-77
2022/04/23 09:57:11;;;;;;;8.20;7.35;;;;;;;22.89;24.86;99680.97;5063590;28;20024;-78
2022/04/23 09:59:38;;;;;;;9.40;6.43;;;;;;;22.50;25.46;99682.28;5078527;28;20035;-76
2022/04/23 10:02:05;;;;;;;9.98;6.70;;;;;;;22.13;25.84;99683.72;5096574;28;20084;-76
2022/04/23 10:04:31;;;;;;;7.68;6.70;;;;;;;21.96;26.00;99684.22;5061477;28;20118;-77
2022/04/23 10:07:18;;;;;;;8.27;6.93;;;;;;;21.44;25.93;99683.38;5061650;28;20039;-76
2022/04/23 10:09:46;;;;;;;8.68;7.00;;;;;;;20.99;26.88;99683.81;5075283;28;20032;-77
2022/04/23 10:12:18;;;;;;;10.25;7.50;;;;;;;19.09;29.96;99697.31;5044845;28;20419;-78
2022/04/23 10:15:05;;;;;;;9.55;7.32;;;;;;;18.68;31.27;99695.66;5077457;28;20051;-76
2022/04/23 10:17:31;;;;;;;8.63;7.82;;;;;;;19.13;30.70;99695.63;5077703;28;20131;-78
2022/04/23 10:20:13;;;;;;;7.90;6.85;;;;;;;19.75;29.64;99693.09;5079622;28;20461;-83
2022/04/23 10:23:01;;;;;;;;;;;;;;;20.27;30.61;99688.50;5078028;28;20028;-78
2022/04/23 10:25:51;;;;;;;9.98;7.00;;;;;;;20.89;29.16;99687.75;5096363;28;20280;-76
2022/04/23 10:28:18;;;;;;;9.00;7.30;;;;;;;21.06;28.33;99676.53;5077775;28;20051;-74
2022/04/23 10:30:46;;;;;;;8.43;7.10;;;;;;;20.91;28.43;99685.09;5061113;28;20039;-75
2022/04/23 10:33:29;;;;;;;8.27;6.78;;;;;;;20.73;28.51;99683.97;5095733;28;20077;-74
2022/04/23 10:36:08;;;;;;;6.57;5.97;;;;;;;20.52;28.05;99674.50;5095999;28;20104;-77
2022/04/23 10:38:34;;;;;;;11.88;7.25;;;;;;;20.45;28.48;99670.19;5095556;28;20369;-77
2022/04/23 10:41:00;;;;;;;9.40;6.50;;;;;;;20.31;28.80;99683.19;5060856;28;20158;-76
2022/04/23 10:43:27;;;;;;;8.43;6.68;;;;;;;20.31;29.02;99673.72;5096010;28;20067;-76
2022/04/23 10:45:54;;;;;;;7.63;6.82;;;;;;;20.30;29.70;99667.13;5095578;28;20395;-75
2022/04/23 10:48:23;;;;;;;6.82;6.10;;;;;;;20.34;29.09;99663.91;5060653;28;20024;-79
2022/04/23 10:51:16;;;;;;;7.82;6.60;;;;;;;20.54;28.80;99666.03;5095232;28;20028;-77
2022/04/23 10:53:42;;;;;;;7.85;6.63;;;;;;;20.59;28.35;99668.78;5077316;28;20094;-82
2022/04/23 10:56:20;;;;;;;7.07;6.38;;;;;;;20.87;28.50;99658.63;5095926;28;20028;-78
2022/04/23 10:58:47;;;;;;;7.68;6.65;;;;;;;20.89;28.22;99655.91;5077441;28;20035;-77
2022/04/23 11:01:26;;;;;;;9.15;6.45;;;;;;;21.08;28.22;99650.66;5095100;28;20028;-77
2022/04/23 11:04:07;;;;;;;8.40;6.85;;;;;;;21.01;28.33;99655.06;5060290;28;20043;-78
2022/04/23 11:12:36;;;;;;;11.10;6.43;;;;;;;20.26;29.30;99655.13;5080301;28;20396;-76
2022/04/23 11:15:13;;;;;;;;;;;;;;;19.96;29.43;99657.69;5077807;28;20080;-76
2022/04/23 11:17:39;;;;;;;11.40;6.65;;;;;;;19.79;29.94;99658.81;5093882;28;19923;-76
2022/04/23 11:20:08;;;;;;;7.75;6.63;;;;;;;19.69;29.73;99659.84;5094086;28;20047;-76
2022/04/23 11:22:33;;;;;;;10.75;7.25;;;;;;;19.58;30.18;99660.09;5076228;28;20028;-77
2022/04/23 11:25:07;;;;;;;9.52;6.50;;;;;;;19.40;30.27;99656.75;5093715;28;20108;-78
2022/04/23 11:27:36;;;;;;;7.18;5.65;;;;;;;19.25;30.69;99647.88;5058614;28;20079;-78
2022/04/23 11:30:02;;;;;;;9.35;7.40;;;;;;;19.10;30.55;99641.09;5094027;28;20050;-77
2022/04/23 11:32:29;;;;;;;8.90;7.47;;;;;;;18.49;31.73;99643.00;5075249;28;20035;-78
2022/04/23 11:35:13;;;;;;;7.95;7.15;;;;;;;18.42;32.72;99620.56;5058703;28;20059;-77
2022/04/23 11:37:39;;;;;;;7.97;6.88;;;;;;;18.30;32.21;99614.22;5075332;28;20381;-78
2022/04/23 11:40:16;;;;;;;7.63;6.80;;;;;;;18.16;32.65;99609.72;5059291;28;20116;-76
2022/04/23 11:42:46;;;;;;;8.27;6.75;;;;;;;18.22;33.30;99624.81;5076724;28;20028;-79
2022/04/23 11:45:16;;;;;;;9.13;6.95;;;;;;;18.22;32.58;99619.06;5059267;28;20020;-79
2022/04/23 11:47:42;;;;;;;8.27;7.10;;;;;;;18.17;32.33;99613.38;5059492;28;20111;-79
2022/04/23 11:50:21;;;;;;;7.72;6.78;;;;;;;18.04;33.27;99611.22;5059674;28;20104;-78
2022/04/23 11:52:58;;;;;;;8.88;6.63;;;;;;;18.10;32.49;99600.41;5076247;28;20496;-79
2022/04/23 11:55:24;;;;;;;7.78;6.97;;;;;;;18.31;33.05;99598.44;5069188;28;20032;-79
2022/04/23 11:57:57;;;;;;;13.50;7.28;;;;;;;18.55;32.56;99601.19;5075056;28;20028;-80